Time;durP1;ratioP1;P1;durP2;ratioP2;P2;SDS_P1;SDS_P2;PMS_P1;PMS_P2;Temp;Humidity;BMP_temperature;BMP_pressure;BME280_temperature;BME280_humidity;BME280_pressure;Samples;Min_cycle;Max_cycle;Signal;HPM_P1;HPM_P2
2023/08/18 00:00:20;;;;;;;7.13;3.43;;;;;;;;;;4893968;29;20775;-82
2023/08/18 00:03:04;;;;;;;5.83;3.20;;;;;;;;;;4892319;29;20176;-82
2023/08/18 00:05:32;;;;;;;5.60;2.80;;;;;;;;;;4905995;29;20196;-82
2023/08/18 00:08:16;;;;;;;8.93;3.50;;;;;;;;;;4892691;29;20528;-81
2023/08/18 00:10:43;;;;;;;5.23;3.37;;;;;;;;;;4893470;29;20322;-82
2023/08/18 00:13:27;;;;;;;7.57;3.93;;;;;;;;;;4895463;29;20199;-82
2023/08/18 00:15:54;;;;;;;6.30;3.60;;;;;;;;;;4894564;29;20192;-82
2023/08/18 00:18:22;;;;;;;7.73;3.83;;;;;;;;;;4894705;29;20235;-82
2023/08/18 00:20:52;;;;;;;6.50;3.60;;;;;;;;;;4910837;29;20199;-82
2023/08/18 00:23:19;;;;;;;4.60;3.20;;;;;;;;;;4895998;29;20245;-82
2023/08/18 00:25:45;;;;;;;6.30;3.70;;;;;;;;;;4895983;29;20203;-82
2023/08/18 00:28:13;;;;;;;5.17;3.50;;;;;;;;;;4896271;29;20211;-82
2023/08/18 00:30:40;;;;;;;6.23;3.90;;;;;;;;;;4897852;29;20203;-82
2023/08/18 00:33:25;;;;;;;13.73;7.17;;;;;;;;;;4895924;29;20184;-82
2023/08/18 00:35:52;;;;;;;7.67;4.60;;;;;;;;;;4896231;29;20207;-82
2023/08/18 00:38:19;;;;;;;6.77;4.00;;;;;;;;;;4911948;29;20230;-82
2023/08/18 00:40:48;;;;;;;7.27;3.80;;;;;;;;;;4896813;29;20612;-82
2023/08/18 00:43:16;;;;;;;6.77;3.93;;;;;;;;;;4911135;29;20672;-81
2023/08/18 00:45:43;;;;;;;7.73;4.23;;;;;;;;;;4895704;29;20322;-82
2023/08/18 00:48:10;;;;;;;6.37;4.13;;;;;;;;;;4896386;29;20302;-83
2023/08/18 00:50:38;;;;;;;8.00;3.87;;;;;;;;;;4896135;29;20652;-82
2023/08/18 00:53:04;;;;;;;4.97;3.37;;;;;;;;;;4895326;29;20212;-82
2023/08/18 00:55:32;;;;;;;4.67;3.80;;;;;;;;;;4895621;29;20324;-83
2023/08/18 00:57:59;;;;;;;6.27;3.90;;;;;;;;;;4895929;29;20707;-82
2023/08/18 01:00:26;;;;;;;4.50;3.57;;;;;;;;;;4895792;29;20204;-82
2023/08/18 01:02:53;;;;;;;5.57;3.57;;;;;;;;;;4895769;29;20718;-82
2023/08/18 01:05:20;;;;;;;6.13;3.50;;;;;;;;;;4896594;29;20204;-83
2023/08/18 01:08:04;;;;;;;7.63;4.00;;;;;;;;;;4909048;29;20179;-83
2023/08/18 01:10:45;;;;;;;6.30;3.80;;;;;;;;;;4895541;29;20645;-82
2023/08/18 01:48:13;;;;;;;6.13;4.50;;;;;;;;;;4895235;29;20230;-82
2023/08/18 01:50:43;;;;;;;6.53;4.50;;;;;;;;;;4879324;29;20263;-83
2023/08/18 01:53:10;;;;;;;7.37;4.00;;;;;;;;;;4895026;29;20252;-82
2023/08/18 01:55:38;;;;;;;8.33;4.63;;;;;;;;;;4894580;29;20211;-83
2023/08/18 01:58:04;;;;;;;8.63;4.83;;;;;;;;;;4910269;29;20260;-83
2023/08/18 02:00:31;;;;;;;7.17;4.47;;;;;;;;;;4894779;29;20256;-82
2023/08/18 02:02:58;;;;;;;6.60;4.33;;;;;;;;;;4879483;29;20228;-82
2023/08/18 02:05:26;;;;;;;8.17;3.80;;;;;;;;;;4878855;29;20218;-83
2023/08/18 02:07:53;;;;;;;6.47;3.67;;;;;;;;;;4910463;29;20227;-83
2023/08/18 02:10:20;;;;;;;6.70;4.23;;;;;;;;;;4910482;29;20204;-83
2023/08/18 02:12:47;;;;;;;8.17;4.60;;;;;;;;;;4895948;29;20192;-83
2023/08/18 02:15:31;;;;;;;6.47;3.93;;;;;;;;;;4894446;29;20180;-81
2023/08/18 02:17:58;;;;;;;6.30;3.57;;;;;;;;;;4878719;29;20289;-82
2023/08/18 02:20:42;;;;;;;6.03;3.67;;;;;;;;;;4895787;29;21037;-82
2023/08/18 02:23:12;;;;;;;6.33;4.23;;;;;;;;;;4894390;29;20220;-82
2023/08/18 02:25:38;;;;;;;14.60;4.30;;;;;;;;;;4895413;29;20206;-82
2023/08/18 02:28:05;;;;;;;5.97;4.87;;;;;;;;;;4894365;29;20287;-83
2023/08/18 02:30:32;;;;;;;5.20;4.40;;;;;;;;;;4894019;29;20200;-83
2023/08/18 02:33:00;;;;;;;6.50;4.13;;;;;;;;;;4909801;29;20215;-84
2023/08/18 02:35:28;;;;;;;7.10;4.13;;;;;;;;;;4893802;29;20200;-83
2023/08/18 02:37:56;;;;;;;4.43;3.73;;;;;;;;;;4894324;29;20667;-82
2023/08/18 02:40:24;;;;;;;5.03;3.80;;;;;;;;;;4893586;29;20890;-84
2023/08/18 02:42:50;;;;;;;7.03;4.00;;;;;;;;;;4909356;29;20196;-82
2023/08/18 02:45:17;;;;;;;6.87;3.83;;;;;;;;;;4894273;29;20715;-82
2023/08/18 02:47:44;;;;;;;5.33;4.27;;;;;;;;;;4894830;29;20240;-82
2023/08/18 02:50:11;;;;;;;5.07;4.30;;;;;;;;;;4894046;29;20200;-83
2023/08/18 02:52:38;;;;;;;7.23;4.50;;;;;;;;;;4894024;29;20209;-83
2023/08/18 02:55:05;;;;;;;7.30;4.83;;;;;;;;;;4877816;29;20354;-82
2023/08/18 02:57:32;;;;;;;8.90;5.70;;;;;;;;;;4862839;29;20568;-83
2023/08/18 02:59:59;;;;;;;7.23;4.40;;;;;;;;;;4869234;29;20228;-83
2023/08/18 03:02:28;;;;;;;6.43;4.43;;;;;;;;;;4894568;29;20203;-82
2023/08/18 03:04:55;;;;;;;6.87;4.73;;;;;;;;;;4909021;29;20200;-83
2023/08/18 03:07:22;;;;;;;6.33;5.20;;;;;;;;;;4894176;29;20206;-83
2023/08/18 03:09:50;;;;;;;7.00;4.70;;;;;;;;;;4895011;29;20192;-82
2023/08/18 03:12:16;;;;;;;8.57;5.20;;;;;;;;;;4893308;29;20207;-82
2023/08/18 03:14:45;;;;;;;7.30;5.00;;;;;;;;;;4878205;29;20218;-84
2023/08/18 03:17:12;;;;;;;8.07;4.50;;;;;;;;;;4894783;29;20238;-83
2023/08/18 03:19:40;;;;;;;7.63;5.47;;;;;;;;;;4893883;29;20228;-83
2023/08/18 03:22:07;;;;;;;11.63;4.93;;;;;;;;;;4878505;29;20283;-82
2023/08/18 03:24:52;;;;;;;7.70;4.93;;;;;;;;;;4893886;29;20858;-83
2023/08/18 03:27:21;;;;;;;7.50;4.73;;;;;;;;;;4893472;29;20259;-83
2023/08/18 03:30:05;;;;;;;6.23;4.77;;;;;;;;;;4893127;29;20183;-82
2023/08/18 03:32:32;;;;;;;7.33;5.37;;;;;;;;;;4893811;29;20695;-83
2023/08/18 03:35:00;;;;;;;6.57;5.23;;;;;;;;;;4875990;29;20192;-83
2023/08/18 03:37:27;;;;;;;8.63;4.60;;;;;;;;;;4892020;29;20853;-83
2023/08/18 03:39:55;;;;;;;6.83;4.90;;;;;;;;;;4904215;29;20220;-82
2023/08/18 03:42:22;;;;;;;8.80;5.23;;;;;;;;;;4879500;29;20195;-82
2023/08/18 03:44:49;;;;;;;7.03;4.67;;;;;;;;;;4892213;29;20216;-83
2023/08/18 03:47:16;;;;;;;5.30;4.80;;;;;;;;;;4891713;29;20236;-83
2023/08/18 03:49:43;;;;;;;7.67;4.53;;;;;;;;;;4879820;29;20244;-76
2023/08/18 03:52:11;;;;;;;6.30;4.63;;;;;;;;;;4890432;29;20231;-83
2023/08/18 03:54:38;;;;;;;8.07;4.90;;;;;;;;;;4877237;29;20832;-82
2023/08/18 03:57:23;;;;;;;6.40;4.57;;;;;;;;;;4889393;29;20195;-81
2023/08/18 03:59:53;;;;;;;5.40;4.20;;;;;;;;;;4889127;29;20326;-82
2023/08/18 04:02:21;;;;;;;7.13;4.30;;;;;;;;;;4890440;29;20200;-84
2023/08/18 04:04:54;;;;;;;4.97;4.10;;;;;;;;;;4892228;29;21004;-80
2023/08/18 04:07:22;;;;;;;10.83;5.07;;;;;;;;;;4923963;29;20247;-79
2023/08/18 04:09:48;;;;;;;7.80;5.13;;;;;;;;;;4909750;29;20210;-81
2023/08/18 04:12:15;;;;;;;4.93;4.20;;;;;;;;;;4924335;29;20203;-80
2023/08/18 04:14:43;;;;;;;5.97;3.87;;;;;;;;;;4908011;29;20209;-79
2023/08/18 04:17:13;;;;;;;5.40;4.33;;;;;;;;;;4914577;29;20204;-82
2023/08/18 04:19:40;;;;;;;5.00;4.47;;;;;;;;;;4908462;29;20223;-80
2023/08/18 04:22:09;;;;;;;6.87;4.63;;;;;;;;;;4909621;29;20203;-77
2023/08/18 04:24:38;;;;;;;11.10;4.77;;;;;;;;;;4907988;29;20219;-81
2023/08/18 04:27:07;;;;;;;7.10;5.13;;;;;;;;;;4908677;29;20207;-79
2023/08/18 04:29:52;;;;;;;8.13;4.30;;;;;;;;;;4909039;29;20678;-79
2023/08/18 04:32:19;;;;;;;6.80;5.07;;;;;;;;;;4910247;29;20206;-79
2023/08/18 04:35:03;;;;;;;8.17;6.10;;;;;;;;;;4911119;29;20176;-76
2023/08/18 04:37:30;;;;;;;7.83;5.17;;;;;;;;;;4905590;29;20623;-82
2023/08/18 04:39:58;;;;;;;10.73;6.50;;;;;;;;;;4882441;29;20353;-80
2023/08/18 04:42:30;;;;;;;6.47;5.40;;;;;;;;;;4912462;29;20290;-80
2023/08/18 04:44:58;;;;;;;9.17;5.70;;;;;;;;;;4910027;29;20206;-81
2023/08/18 04:47:27;;;;;;;7.30;5.40;;;;;;;;;;4906543;29;20227;-79
2023/08/18 04:49:55;;;;;;;7.93;6.10;;;;;;;;;;4923059;29;20571;-79
2023/08/18 04:52:23;;;;;;;12.63;6.83;;;;;;;;;;4910524;29;20196;-83
2023/08/18 04:54:51;;;;;;;10.03;6.90;;;;;;;;;;4907852;29;20238;-82
2023/08/18 04:57:19;;;;;;;11.80;8.87;;;;;;;;;;4902637;29;20691;-82
2023/08/18 04:59:46;;;;;;;11.63;8.80;;;;;;;;;;4908353;29;20318;-82
2023/08/18 05:02:13;;;;;;;12.70;8.57;;;;;;;;;;4906725;29;20195;-84
2023/08/18 05:04:40;;;;;;;9.80;7.77;;;;;;;;;;4908747;29;20188;-83
2023/08/18 05:07:07;;;;;;;12.27;8.30;;;;;;;;;;4920338;29;20263;-77
2023/08/18 05:09:34;;;;;;;9.43;8.10;;;;;;;;;;4911182;29;20207;-78
2023/08/18 05:12:02;;;;;;;12.37;7.60;;;;;;;;;;4912067;29;20258;-78
2023/08/18 05:14:29;;;;;;;8.37;6.50;;;;;;;;;;4910243;29;20208;-77
2023/08/18 05:16:55;;;;;;;8.77;6.30;;;;;;;;;;4893988;29;20212;-83
2023/08/18 05:19:22;;;;;;;20.43;7.43;;;;;;;;;;4904733;29;20867;-83
2023/08/18 05:21:51;;;;;;;8.97;6.60;;;;;;;;;;4890534;29;20214;-79
2023/08/18 05:24:18;;;;;;;9.73;7.00;;;;;;;;;;4907414;29;20231;-80
2023/08/18 05:26:45;;;;;;;9.27;6.73;;;;;;;;;;4910796;29;20211;-80
2023/08/18 05:29:12;;;;;;;8.97;7.20;;;;;;;;;;4909967;29;20663;-80
2023/08/18 05:31:57;;;;;;;10.80;7.37;;;;;;;;;;4912361;29;20184;-81
2023/08/18 05:34:25;;;;;;;8.43;6.70;;;;;;;;;;4881796;29;20189;-79
2023/08/18 05:36:54;;;;;;;10.73;7.70;;;;;;;;;;4907272;29;20211;-81
2023/08/18 05:39:21;;;;;;;11.77;7.80;;;;;;;;;;4894633;29;20298;-76
2023/08/18 05:41:48;;;;;;;15.20;9.30;;;;;;;;;;4901455;29;20192;-76
2023/08/18 05:44:17;;;;;;;11.07;8.97;;;;;;;;;;4912152;29;20287;-78
2023/08/18 05:46:47;;;;;;;15.70;8.63;;;;;;;;;;4909761;29;20236;-78
2023/08/18 05:49:16;;;;;;;9.53;7.97;;;;;;;;;;4906450;29;20290;-77
2023/08/18 05:52:01;;;;;;;10.87;8.73;;;;;;;;;;4919896;29;20196;-78
2023/08/18 05:54:28;;;;;;;14.97;9.03;;;;;;;;;;4908292;29;20202;-76
2023/08/18 05:56:56;;;;;;;16.03;8.67;;;;;;;;;;4909425;29;20203;-77
2023/08/18 05:59:24;;;;;;;15.37;9.17;;;;;;;;;;4908719;29;20208;-76
2023/08/18 06:01:56;;;;;;;12.10;9.13;;;;;;;;;;4912860;29;20203;-82
2023/08/18 06:04:24;;;;;;;14.50;10.07;;;;;;;;;;4908962;29;20215;-79
2023/08/18 06:06:51;;;;;;;15.87;9.33;;;;;;;;;;4865845;29;20243;-84
2023/08/18 06:09:19;;;;;;;16.00;9.73;;;;;;;;;;4893722;29;20203;-79
2023/08/18 06:11:48;;;;;;;14.97;10.30;;;;;;;;;;4894725;29;20202;-78
2023/08/18 06:14:16;;;;;;;13.43;10.90;;;;;;;;;;4893009;29;20208;-77
2023/08/18 06:16:45;;;;;;;17.37;11.97;;;;;;;;;;4893483;29;20212;-79
2023/08/18 06:19:35;;;;;;;17.83;11.07;;;;;;;;;;4893207;29;20225;-78
2023/08/18 06:22:02;;;;;;;15.63;10.87;;;;;;;;;;4866756;29;20275;-75
2023/08/18 06:24:30;;;;;;;14.43;10.77;;;;;;;;;;4908270;29;20204;-77
2023/08/18 06:26:57;;;;;;;16.93;11.60;;;;;;;;;;4884163;29;20354;-83
2023/08/18 06:29:24;;;;;;;13.33;10.43;;;;;;;;;;4864275;29;20300;-77
2023/08/18 06:31:54;;;;;;;15.37;11.57;;;;;;;;;;4897194;29;20294;-82
2023/08/18 06:34:25;;;;;;;12.97;10.90;;;;;;;;;;4897398;29;20209;-82
2023/08/18 06:36:55;;;;;;;18.33;9.63;;;;;;;;;;4880431;29;20204;-81
2023/08/18 06:39:22;;;;;;;16.20;10.97;;;;;;;;;;4885172;29;20624;-84
2023/08/18 06:41:51;;;;;;;12.73;10.23;;;;;;;;;;4891393;29;20224;-81
2023/08/18 06:44:19;;;;;;;12.37;10.17;;;;;;;;;;4907124;29;20298;-84
2023/08/18 06:46:47;;;;;;;13.97;9.67;;;;;;;;;;4877218;29;20232;-78
2023/08/18 06:49:15;;;;;;;11.43;9.27;;;;;;;;;;4893277;29;20200;-83
2023/08/18 06:51:42;;;;;;;10.90;8.93;;;;;;;;;;4908223;29;20210;-80
2023/08/18 06:54:13;;;;;;;13.70;10.43;;;;;;;;;;4907721;29;20208;-80
2023/08/18 06:56:46;;;;;;;12.63;9.70;;;;;;;;;;4877381;29;20215;-86
2023/08/18 06:59:14;;;;;;;14.40;10.67;;;;;;;;;;4890766;29;20232;-86
2023/08/18 07:01:43;;;;;;;14.73;10.37;;;;;;;;;;4873724;29;20201;-84
2023/08/18 07:04:13;;;;;;;10.47;8.77;;;;;;;;;;4867152;29;20212;-85
2023/08/18 07:06:43;;;;;;;12.60;9.57;;;;;;;;;;4874895;29;20680;-83
2023/08/18 07:09:13;;;;;;;11.50;10.17;;;;;;;;;;4889441;29;20272;-85
2023/08/18 07:11:43;;;;;;;15.33;10.77;;;;;;;;;;4875748;29;20213;-82
2023/08/18 07:14:11;;;;;;;13.17;10.13;;;;;;;;;;4872843;29;20292;-80
2023/08/18 07:16:39;;;;;;;14.37;10.10;;;;;;;;;;4900783;29;20267;-82
2023/08/18 07:19:15;;;;;;;14.87;10.83;;;;;;;;;;4868270;29;20212;-83
2023/08/18 07:21:42;;;;;;;13.17;10.60;;;;;;;;;;4878970;29;20201;-83
2023/08/18 07:24:27;;;;;;;15.13;10.77;;;;;;;;;;4874967;29;20192;-82
2023/08/18 07:26:55;;;;;;;13.43;10.90;;;;;;;;;;4884467;29;20202;-81
2023/08/18 07:29:25;;;;;;;12.90;10.30;;;;;;;;;;4869060;29;20203;-83
2023/08/18 07:31:55;;;;;;;14.87;10.27;;;;;;;;;;4879861;29;20204;-80
2023/08/18 07:34:24;;;;;;;12.33;10.33;;;;;;;;;;4882298;29;20272;-76
2023/08/18 07:36:51;;;;;;;14.83;11.33;;;;;;;;;;4881732;29;20203;-80
2023/08/18 07:39:19;;;;;;;14.57;11.30;;;;;;;;;;4890134;29;20200;-76
2023/08/18 07:41:50;;;;;;;15.20;11.73;;;;;;;;;;4882464;29;20232;-76
2023/08/18 07:44:18;;;;;;;19.10;11.67;;;;;;;;;;4889670;29;20209;-77
2023/08/18 07:47:03;;;;;;;14.37;12.03;;;;;;;;;;4879628;29;20232;-78
2023/08/18 07:49:30;;;;;;;15.17;11.73;;;;;;;;;;4882907;29;20194;-78
2023/08/18 07:51:59;;;;;;;14.23;11.93;;;;;;;;;;4887003;29;20197;-76
2023/08/18 07:54:28;;;;;;;14.03;10.90;;;;;;;;;;4879679;29;20197;-77
2023/08/18 07:56:56;;;;;;;15.40;11.20;;;;;;;;;;4870825;29;20224;-78
2023/08/18 07:59:24;;;;;;;14.87;10.80;;;;;;;;;;4877504;29;20223;-78
2023/08/18 08:01:56;;;;;;;13.33;10.30;;;;;;;;;;4907127;29;20254;-73
2023/08/18 08:04:23;;;;;;;17.10;10.23;;;;;;;;;;4908466;29;20550;-77
2023/08/18 08:07:07;;;;;;;11.90;10.70;;;;;;;;;;4908120;29;20208;-75
2023/08/18 08:09:35;;;;;;;13.83;11.17;;;;;;;;;;4911098;29;20210;-75
2023/08/18 08:12:21;;;;;;;14.73;11.60;;;;;;;;;;4906658;29;20196;-76
2023/08/18 08:14:48;;;;;;;11.77;10.30;;;;;;;;;;4901205;29;20196;-75
2023/08/18 08:17:19;;;;;;;15.70;9.97;;;;;;;;;;4911764;29;20194;-75
2023/08/18 08:19:51;;;;;;;15.70;10.57;;;;;;;;;;4902899;29;20232;-76
2023/08/18 08:22:21;;;;;;;13.80;10.67;;;;;;;;;;4885789;29;20211;-75
2023/08/18 08:24:50;;;;;;;13.27;10.77;;;;;;;;;;4891526;29;20210;-76
2023/08/18 08:27:20;;;;;;;12.30;10.50;;;;;;;;;;4883973;29;20212;-76
2023/08/18 08:29:51;;;;;;;15.40;10.67;;;;;;;;;;4884044;29;20598;-76
2023/08/18 08:32:20;;;;;;;16.73;10.10;;;;;;;;;;4886990;29;20235;-79
2023/08/18 08:34:48;;;;;;;14.40;10.20;;;;;;;;;;4872936;29;20542;-79
2023/08/18 08:37:17;;;;;;;15.13;10.00;;;;;;;;;;4873858;29;20200;-81
2023/08/18 08:39:45;;;;;;;12.27;9.27;;;;;;;;;;4872444;29;20211;-75
2023/08/18 08:42:13;;;;;;;11.97;9.53;;;;;;;;;;4894064;29;20204;-76
2023/08/18 08:44:40;;;;;;;11.30;9.50;;;;;;;;;;4892676;29;20216;-75
2023/08/18 08:47:08;;;;;;;10.63;8.20;;;;;;;;;;4894216;29;20736;-83
2023/08/18 08:49:43;;;;;;;12.80;8.40;;;;;;;;;;4886962;29;20240;-76
2023/08/18 08:52:16;;;;;;;11.40;8.00;;;;;;;;;;4886393;29;20193;-80
2023/08/18 08:54:47;;;;;;;11.53;7.97;;;;;;;;;;4910385;29;20196;-75
2023/08/18 08:57:15;;;;;;;11.07;7.20;;;;;;;;;;4889525;29;20652;-80
2023/08/18 08:59:42;;;;;;;12.70;7.93;;;;;;;;;;4875092;29;20244;-80
2023/08/18 09:02:10;;;;;;;9.67;7.27;;;;;;;;;;4861068;29;20249;-75
2023/08/18 09:04:37;;;;;;;8.43;6.63;;;;;;;;;;4884394;29;20208;-80
2023/08/18 09:07:05;;;;;;;9.33;6.80;;;;;;;;;;4889324;29;20209;-80
2023/08/18 09:09:35;;;;;;;12.97;6.83;;;;;;;;;;4880464;29;20333;-82
2023/08/18 09:12:07;;;;;;;9.77;6.33;;;;;;;;;;4879693;29;20328;-84
2023/08/18 09:14:36;;;;;;;9.83;6.53;;;;;;;;;;4894279;29;20676;-82
2023/08/18 09:17:04;;;;;;;7.87;5.70;;;;;;;;;;4895585;29;20310;-82
2023/08/18 09:19:34;;;;;;;7.33;5.77;;;;;;;;;;4876745;29;20256;-77
2023/08/18 09:22:04;;;;;;;11.10;6.70;;;;;;;;;;4874736;29;20225;-75
2023/08/18 09:24:32;;;;;;;10.17;6.03;;;;;;;;;;4882518;29;20201;-76
2023/08/18 09:27:04;;;;;;;10.60;6.23;;;;;;;;;;4896551;29;20201;-80
2023/08/18 09:29:34;;;;;;;10.97;6.30;;;;;;;;;;4899233;29;20219;-79
2023/08/18 09:32:02;;;;;;;7.60;5.80;;;;;;;;;;4896015;29;20221;-85
2023/08/18 09:34:31;;;;;;;10.30;6.30;;;;;;;;;;4892325;29;20196;-80
2023/08/18 09:37:04;;;;;;;6.23;5.47;;;;;;;;;;4880746;29;20229;-85
2023/08/18 09:39:32;;;;;;;8.03;5.83;;;;;;;;;;4888181;29;20206;-85
2023/08/18 09:42:06;;;;;;;7.37;5.60;;;;;;;;;;4876319;29;20585;-84
2023/08/18 09:44:33;;;;;;;9.23;5.80;;;;;;;;;;4889351;29;20218;-87
2023/08/18 09:47:03;;;;;;;8.07;5.33;;;;;;;;;;4860182;29;20234;-87
2023/08/18 09:49:31;;;;;;;8.67;5.50;;;;;;;;;;4889708;29;20279;-79
2023/08/18 09:52:03;;;;;;;7.63;5.70;;;;;;;;;;4864628;29;20231;-83
2023/08/18 09:54:52;;;;;;;8.10;5.90;;;;;;;;;;4883244;29;20267;-80
2023/08/18 09:57:21;;;;;;;8.03;6.20;;;;;;;;;;4891199;29;20208;-83
2023/08/18 09:59:51;;;;;;;9.33;6.73;;;;;;;;;;4865978;29;20247;-86
2023/08/18 10:02:22;;;;;;;10.50;7.20;;;;;;;;;;4874478;29;20204;-85
2023/08/18 10:04:50;;;;;;;8.70;7.10;;;;;;;;;;4891228;29;20234;-80
2023/08/18 10:07:18;;;;;;;11.27;7.40;;;;;;;;;;4874250;29;20840;-83
2023/08/18 10:09:46;;;;;;;12.70;7.93;;;;;;;;;;4890451;29;20220;-81
2023/08/18 10:12:13;;;;;;;10.97;8.17;;;;;;;;;;4890974;29;20202;-82
2023/08/18 10:14:40;;;;;;;13.13;8.90;;;;;;;;;;4887400;29;20200;-81
2023/08/18 10:17:07;;;;;;;14.27;9.50;;;;;;;;;;4873305;29;20655;-81
2023/08/18 10:19:47;;;;;;;17.20;10.33;;;;;;;;;;4887449;29;20207;-81
2023/08/18 10:22:14;;;;;;;13.90;9.13;;;;;;;;;;4886154;29;20299;-84
2023/08/18 10:24:53;;;;;;;16.90;10.17;;;;;;;;;;4862304;29;20914;-82
2023/08/18 10:27:26;;;;;;;17.67;10.10;;;;;;;;;;4897160;29;20291;-83
2023/08/18 10:29:57;;;;;;;17.93;10.13;;;;;;;;;;4908455;29;20204;-79
2023/08/18 10:32:24;;;;;;;15.30;9.50;;;;;;;;;;4892716;29;20204;-86
2023/08/18 10:34:52;;;;;;;17.30;9.87;;;;;;;;;;4893706;29;20203;-81
2023/08/18 10:37:20;;;;;;;16.73;9.53;;;;;;;;;;4874746;29;20207;-82
2023/08/18 10:39:51;;;;;;;14.70;9.77;;;;;;;;;;4873469;29;20221;-80
2023/08/18 10:42:19;;;;;;;14.87;9.37;;;;;;;;;;4878330;29;20723;-86
2023/08/18 10:44:57;;;;;;;12.57;8.93;;;;;;;;;;4864328;29;20242;-85
2023/08/18 10:47:27;;;;;;;14.27;9.03;;;;;;;;;;4891018;29;20240;-82
2023/08/18 10:50:04;;;;;;;12.40;8.53;;;;;;;;;;4891161;29;20208;-78
2023/08/18 10:52:32;;;;;;;12.03;8.47;;;;;;;;;;4894655;29;20211;-82
2023/08/18 10:55:00;;;;;;;12.17;8.20;;;;;;;;;;4887344;29;20201;-81
2023/08/18 10:57:27;;;;;;;19.00;8.50;;;;;;;;;;4858023;29;20705;-81
2023/08/18 10:59:55;;;;;;;10.50;7.93;;;;;;;;;;4880007;29;20323;-79
2023/08/18 11:02:23;;;;;;;14.33;7.77;;;;;;;;;;4893440;29;20232;-80
2023/08/18 11:04:54;;;;;;;15.83;8.40;;;;;;;;;;4887804;29;20207;-80
2023/08/18 11:07:21;;;;;;;10.97;8.23;;;;;;;;;;4892515;29;20256;-79
2023/08/18 11:09:51;;;;;;;10.03;7.70;;;;;;;;;;4876498;29;20200;-80
2023/08/18 11:12:20;;;;;;;10.93;8.07;;;;;;;;;;4889775;29;20204;-81
2023/08/18 11:14:50;;;;;;;10.10;7.70;;;;;;;;;;4876802;29;20207;-84
2023/08/18 11:17:18;;;;;;;9.60;7.43;;;;;;;;;;4908206;29;20642;-81
2023/08/18 11:19:49;;;;;;;14.17;8.03;;;;;;;;;;4891421;29;20299;-83
2023/08/18 11:22:23;;;;;;;8.03;7.13;;;;;;;;;;4897139;29;20696;-82
2023/08/18 11:24:53;;;;;;;9.17;7.43;;;;;;;;;;4910205;29;20240;-77
2023/08/18 11:27:22;;;;;;;10.00;7.50;;;;;;;;;;4910112;29;20957;-79
2023/08/18 11:29:52;;;;;;;11.40;7.67;;;;;;;;;;4908238;29;20199;-83
2023/08/18 11:32:23;;;;;;;10.80;7.47;;;;;;;;;;4895877;29;20226;-81
2023/08/18 11:35:09;;;;;;;11.50;7.17;;;;;;;;;;4911274;29;20179;-81
2023/08/18 11:37:39;;;;;;;9.07;6.60;;;;;;;;;;4925955;29;20684;-79
2023/08/18 11:40:09;;;;;;;7.90;5.97;;;;;;;;;;4911457;29;20259;-78
2023/08/18 11:42:44;;;;;;;9.83;5.93;;;;;;;;;;4911115;29;20612;-79
2023/08/18 11:45:28;;;;;;;7.00;5.10;;;;;;;;;;4891392;29;20180;-83
2023/08/18 11:48:03;;;;;;;9.23;5.20;;;;;;;;;;4860902;29;20515;-82
2023/08/18 11:50:31;;;;;;;11.63;5.07;;;;;;;;;;4906907;29;20958;-81
2023/08/18 11:52:59;;;;;;;5.53;4.40;;;;;;;;;;4908324;29;20575;-83
2023/08/18 11:55:32;;;;;;;5.10;4.10;;;;;;;;;;4892470;29;20195;-79
2023/08/18 11:58:26;;;;;;;4.20;3.80;;;;;;;;;;4867432;28;20845;-84
2023/08/18 12:01:22;;;;;;;4.40;4.00;;;;;;;;;;4860990;29;20634;-84
2023/08/18 12:03:58;;;;;;;5.93;3.77;;;;;;;;;;4889612;29;20216;-88
2023/08/18 12:06:26;;;;;;;4.17;3.47;;;;;;;;;;4874320;29;20204;-81
2023/08/18 12:08:55;;;;;;;4.90;3.40;;;;;;;;;;4867686;29;20212;-87
2023/08/18 12:11:23;;;;;;;4.17;3.13;;;;;;;;;;4893388;29;20204;-84
2023/08/18 12:13:52;;;;;;;4.00;3.40;;;;;;;;;;4889457;29;20204;-88
2023/08/18 12:16:20;;;;;;;3.87;2.50;;;;;;;;;;4871485;29;20292;-82
2023/08/18 12:18:52;;;;;;;5.30;2.70;;;;;;;;;;4888200;29;20204;-80
2023/08/18 12:21:22;;;;;;;3.70;3.07;;;;;;;;;;4880904;29;20236;-85
2023/08/18 12:23:50;;;;;;;4.43;2.70;;;;;;;;;;4889602;29;20681;-85
2023/08/18 12:26:21;;;;;;;4.73;2.90;;;;;;;;;;4892084;29;20217;-84
2023/08/18 12:29:05;;;;;;;5.40;3.03;;;;;;;;;;4901588;29;20184;-80
2023/08/18 12:31:36;;;;;;;4.03;3.23;;;;;;;;;;4910073;29;20243;-84
2023/08/18 12:34:06;;;;;;;3.47;2.90;;;;;;;;;;4924906;29;20894;-83
2023/08/18 12:36:33;;;;;;;4.70;2.67;;;;;;;;;;4909053;29;20239;-77
2023/08/18 12:39:01;;;;;;;4.87;3.37;;;;;;;;;;4904660;29;20283;-85
2023/08/18 12:41:32;;;;;;;8.17;4.13;;;;;;;;;;4898163;29;20244;-78
2023/08/18 12:44:02;;;;;;;4.83;3.40;;;;;;;;;;4907245;29;20844;-85
2023/08/18 12:46:39;;;;;;;4.00;2.93;;;;;;;;;;4917457;29;20338;-84
2023/08/18 12:49:06;;;;;;;4.67;3.20;;;;;;;;;;4911371;29;20196;-83
2023/08/18 12:51:34;;;;;;;7.37;3.30;;;;;;;;;;4896574;29;20227;-84
2023/08/18 12:54:04;;;;;;;5.87;3.37;;;;;;;;;;4906438;29;20846;-82
2023/08/18 12:56:34;;;;;;;3.97;3.00;;;;;;;;;;4894185;29;20615;-90
2023/08/18 12:59:03;;;;;;;5.27;3.50;;;;;;;;;;4899984;29;20220;-82
2023/08/18 13:01:31;;;;;;;7.43;3.70;;;;;;;;;;4903815;29;20314;-84
2023/08/18 13:04:02;;;;;;;6.13;3.30;;;;;;;;;;4899139;29;20205;-85
2023/08/18 13:06:32;;;;;;;3.83;3.43;;;;;;;;;;4886416;29;20639;-85
2023/08/18 13:09:00;;;;;;;4.00;3.47;;;;;;;;;;4916941;29;20200;-88
2023/08/18 13:11:45;;;;;;;5.77;3.70;;;;;;;;;;4905385;29;20187;-86
2023/08/18 13:14:16;;;;;;;5.90;3.83;;;;;;;;;;4908498;29;20204;-83
2023/08/18 13:16:52;;;;;;;6.67;3.63;;;;;;;;;;4908000;29;20212;-86
2023/08/18 13:19:25;;;;;;;4.43;4.03;;;;;;;;;;4893790;29;20671;-85
2023/08/18 13:21:54;;;;;;;4.07;3.67;;;;;;;;;;4911612;29;20219;-83
2023/08/18 13:24:25;;;;;;;5.80;4.20;;;;;;;;;;4909335;29;20588;-88
2023/08/18 13:26:55;;;;;;;5.77;4.53;;;;;;;;;;4912901;29;20602;-89
2023/08/18 13:29:27;;;;;;;5.03;3.53;;;;;;;;;;4912279;29;20188;-84
2023/08/18 13:31:56;;;;;;;4.30;3.50;;;;;;;;;;4899157;29;20255;-82
2023/08/18 13:34:26;;;;;;;5.93;3.93;;;;;;;;;;4901498;29;20689;-88
2023/08/18 13:36:54;;;;;;;5.77;4.10;;;;;;;;;;4904890;29;20215;-87
2023/08/18 13:39:22;;;;;;;4.43;3.30;;;;;;;;;;4881331;29;20193;-84
2023/08/18 13:41:51;;;;;;;5.30;3.90;;;;;;;;;;4899785;29;20215;-86
2023/08/18 13:44:21;;;;;;;5.40;3.53;;;;;;;;;;4913789;29;20195;-88
2023/08/18 13:46:49;;;;;;;3.80;3.50;;;;;;;;;;4913753;29;20342;-89
2023/08/18 13:49:17;;;;;;;4.30;3.90;;;;;;;;;;4911297;29;20196;-85
2023/08/18 13:51:46;;;;;;;3.87;3.37;;;;;;;;;;4896385;29;20200;-84
2023/08/18 13:54:17;;;;;;;4.43;3.53;;;;;;;;;;4896757;29;20201;-78
2023/08/18 13:56:44;;;;;;;5.47;3.80;;;;;;;;;;4910863;29;20196;-80
2023/08/18 13:59:11;;;;;;;5.40;3.50;;;;;;;;;;4883088;29;20225;-78
2023/08/18 14:01:56;;;;;;;6.73;3.77;;;;;;;;;;4892596;29;20216;-79
2023/08/18 14:04:24;;;;;;;4.87;3.40;;;;;;;;;;4889816;29;20194;-79
2023/08/18 14:06:53;;;;;;;10.33;3.67;;;;;;;;;;4891133;29;20206;-79
2023/08/18 14:09:26;;;;;;;7.93;3.93;;;;;;;;;;4888992;29;20258;-79
2023/08/18 14:11:55;;;;;;;6.27;3.63;;;;;;;;;;4911816;29;20225;-82
2023/08/18 14:14:25;;;;;;;4.63;3.53;;;;;;;;;;4922514;28;20199;-79
2023/08/18 14:16:58;;;;;;;6.23;3.70;;;;;;;;;;4929855;29;20661;-83
2023/08/18 14:19:44;;;;;;;3.77;3.30;;;;;;;;;;4928495;29;20185;-83
2023/08/18 14:22:13;;;;;;;4.20;3.80;;;;;;;;;;4912797;29;20959;-79
2023/08/18 14:24:44;;;;;;;5.60;4.07;;;;;;;;;;4919692;29;20260;-80
2023/08/18 14:27:13;;;;;;;5.53;3.73;;;;;;;;;;4928074;29;20213;-82
2023/08/18 14:29:45;;;;;;;5.13;4.10;;;;;;;;;;4929319;29;20261;-82
2023/08/18 14:32:23;;;;;;;4.43;3.87;;;;;;;;;;4929269;29;20225;-80
2023/08/18 14:35:00;;;;;;;4.27;3.77;;;;;;;;;;4927935;29;20219;-83
2023/08/18 14:37:38;;;;;;;4.27;3.87;;;;;;;;;;4941293;29;20229;-81
2023/08/18 14:40:11;;;;;;;4.93;4.10;;;;;;;;;;4945198;28;20228;-81
2023/08/18 14:43:08;;;;;;;4.37;3.77;;;;;;;;;;4942681;28;20228;-80
2023/08/18 14:45:44;;;;;;;4.93;3.93;;;;;;;;;;4922387;29;20694;-73
2023/08/18 14:48:12;;;;;;;5.67;4.20;;;;;;;;;;4919971;29;20236;-73
2023/08/18 14:50:39;;;;;;;5.40;4.10;;;;;;;;;;4906133;29;20280;-73
2023/08/18 14:53:08;;;;;;;5.53;4.20;;;;;;;;;;4921864;29;20285;-76
2023/08/18 14:55:35;;;;;;;4.70;4.13;;;;;;;;;;4924162;29;20310;-73
2023/08/18 14:58:02;;;;;;;9.57;4.70;;;;;;;;;;4914104;28;20262;-74
2023/08/18 15:00:33;;;;;;;4.80;4.17;;;;;;;;;;4921896;29;20206;-75
2023/08/18 15:03:03;;;;;;;8.63;4.63;;;;;;;;;;4923371;28;20216;-73
2023/08/18 15:05:31;;;;;;;8.43;5.27;;;;;;;;;;4925271;29;20261;-75
2023/08/18 15:07:58;;;;;;;7.83;5.13;;;;;;;;;;4925100;29;20224;-77
2023/08/18 15:10:26;;;;;;;5.93;5.07;;;;;;;;;;4923003;29;20213;-78
2023/08/18 15:12:53;;;;;;;5.80;4.83;;;;;;;;;;4928477;29;20199;-78
2023/08/18 15:15:20;;;;;;;7.40;4.77;;;;;;;;;;4929425;29;20219;-78
2023/08/18 15:17:48;;;;;;;5.23;4.20;;;;;;;;;;4944886;29;20667;-80
2023/08/18 15:20:16;;;;;;;5.10;4.60;;;;;;;;;;4927707;29;20240;-81
2023/08/18 15:22:44;;;;;;;9.53;4.83;;;;;;;;;;4927545;29;20257;-80
2023/08/18 15:25:12;;;;;;;6.43;4.30;;;;;;;;;;4913294;29;20207;-80
2023/08/18 15:27:46;;;;;;;6.57;4.53;;;;;;;;;;4925873;29;20196;-79